createdAt,value
2022-12-05T00:00:02.347Z,1.90
2022-12-05T00:04:06.455Z,1.80
2022-12-05T00:08:08.266Z,1.90
2022-12-05T00:12:09.889Z,1.80
2022-12-05T00:16:15.810Z,1.70
2022-12-05T00:20:18.738Z,1.70
2022-12-05T00:24:20.761Z,1.70
2022-12-05T00:28:22.338Z,1.70
2022-12-05T00:32:24.024Z,1.70
2022-12-05T00:36:26.918Z,1.60
2022-12-05T00:40:28.533Z,1.60
2022-12-05T00:44:30.117Z,1.70
2022-12-05T00:48:31.926Z,1.70
2022-12-05T00:52:33.548Z,1.70
2022-12-05T00:56:35.408Z,1.70
2022-12-05T01:00:37.083Z,1.70
2022-12-05T01:04:38.645Z,1.70
2022-12-05T01:08:40.300Z,1.70
2022-12-05T01:12:43.163Z,1.70
2022-12-05T01:16:45.766Z,1.60
2022-12-05T01:20:47.987Z,1.70
2022-12-05T01:24:49.651Z,1.60
2022-12-05T01:28:51.742Z,1.60
2022-12-05T01:32:54.500Z,1.60
2022-12-05T01:36:56.096Z,1.70
2022-12-05T01:41:04.776Z,1.70
2022-12-05T01:45:13.513Z,1.50
2022-12-05T01:49:16.912Z,1.70
2022-12-05T01:53:19.155Z,1.60
2022-12-05T01:57:20.836Z,1.60
2022-12-05T02:01:22.403Z,1.50
2022-12-05T02:05:28.487Z,1.50
2022-12-05T02:09:30.063Z,1.60
2022-12-05T02:13:43.235Z,1.70
2022-12-05T02:17:44.725Z,1.70
2022-12-05T02:21:58.563Z,1.80
2022-12-05T02:26:03.206Z,1.70
2022-12-05T02:30:19.095Z,1.80
2022-12-05T02:34:23.510Z,1.70
2022-12-05T02:38:30.781Z,1.60
2022-12-05T02:42:58.672Z,1.60
2022-12-05T02:47:00.614Z,1.60
2022-12-05T02:51:02.824Z,1.60
2022-12-05T02:55:04.822Z,1.60
2022-12-05T02:59:06.397Z,1.50
2022-12-05T03:03:13.793Z,1.50
2022-12-05T03:07:17.528Z,1.50
2022-12-05T03:11:19.107Z,1.40
2022-12-05T03:15:22.971Z,1.30
2022-12-05T03:19:26.659Z,1.40
2022-12-05T03:23:34.182Z,1.30
2022-12-05T03:27:36.886Z,1.40
2022-12-05T03:31:45.998Z,1.40
2022-12-05T03:36:01.119Z,1.40
2022-12-05T03:40:13.520Z,1.30
2022-12-05T03:44:21.908Z,1.30
2022-12-05T03:48:35.032Z,1.30
2022-12-05T03:53:03.654Z,1.30
2022-12-05T03:57:28.552Z,1.40
2022-12-05T04:01:31.414Z,1.30
2022-12-05T04:05:39.228Z,1.40
2022-12-05T04:09:45.544Z,1.30
2022-12-05T04:13:49.578Z,1.30
2022-12-05T04:18:00.908Z,1.30
2022-12-05T04:22:02.467Z,1.40
2022-12-05T04:26:09.787Z,1.40
2022-12-05T04:30:16.518Z,1.30
2022-12-05T04:34:19.286Z,1.30
2022-12-05T04:38:24.461Z,1.40
2022-12-05T04:42:27.236Z,1.40
2022-12-05T04:46:28.832Z,1.30
2022-12-05T04:50:32.913Z,1.40
2022-12-05T04:54:38.787Z,1.30
2022-12-05T04:58:40.585Z,1.30
2022-12-05T05:02:47.947Z,1.40
2022-12-05T05:06:49.593Z,1.40
2022-12-05T05:11:00.689Z,1.30
2022-12-05T05:15:02.262Z,1.30
2022-12-05T05:19:04.578Z,1.30
2022-12-05T05:23:06.708Z,1.30
2022-12-05T05:27:08.204Z,1.30
2022-12-05T05:31:09.862Z,1.40
2022-12-05T05:35:11.789Z,1.30
2022-12-05T05:39:14.893Z,1.40
2022-12-05T05:43:16.567Z,1.40
2022-12-05T05:47:18.233Z,1.40
2022-12-05T05:51:20.787Z,1.30
2022-12-05T05:59:58.104Z,1.30
2022-12-05T06:04:04.644Z,1.50
2022-12-05T06:08:17.697Z,1.50
2022-12-05T06:12:19.502Z,1.50
2022-12-05T06:16:21.289Z,1.50
2022-12-05T06:20:23.408Z,1.50
2022-12-05T06:24:25.029Z,1.50
2022-12-05T06:28:26.897Z,1.50
2022-12-05T06:32:29.246Z,1.50
2022-12-05T06:36:30.880Z,1.60
2022-12-05T06:40:32.942Z,1.50
2022-12-05T06:44:34.525Z,1.60
2022-12-05T06:48:36.126Z,1.60
2022-12-05T06:52:37.739Z,1.60
2022-12-05T06:56:39.598Z,1.60
2022-12-05T07:01:00.088Z,1.60
2022-12-05T07:05:02.083Z,1.60
2022-12-05T07:09:05.436Z,1.60
2022-12-05T07:13:13.012Z,1.70
2022-12-05T07:17:18.685Z,1.60
2022-12-05T07:21:21.955Z,1.60
2022-12-05T07:25:24.813Z,1.70
2022-12-05T07:29:26.437Z,1.70
2022-12-05T07:33:28.413Z,1.80
2022-12-05T07:37:30.449Z,1.70
2022-12-05T07:41:35.425Z,1.70
2022-12-05T07:45:37.724Z,1.70
2022-12-05T07:49:39.362Z,1.80
2022-12-05T07:53:46.868Z,1.80
2022-12-05T07:57:50.567Z,1.80
2022-12-05T08:01:52.333Z,1.80
2022-12-05T08:10:09.747Z,1.90
2022-12-05T08:14:13.621Z,1.90
2022-12-05T08:18:15.155Z,2.00
2022-12-05T08:22:16.929Z,1.90
2022-12-05T08:26:21.122Z,1.90
2022-12-05T08:30:23.039Z,1.90
2022-12-05T08:34:27.096Z,1.80
2022-12-05T08:38:28.822Z,2.00
2022-12-05T08:42:33.949Z,2.10
2022-12-05T08:46:36.771Z,2.10
2022-12-05T08:50:41.298Z,2.10
2022-12-05T08:54:43.556Z,2.00
2022-12-05T08:58:46.624Z,2.10
2022-12-05T09:02:50.716Z,2.20
2022-12-05T09:06:54.090Z,2.20
2022-12-05T09:11:04.779Z,2.20
2022-12-05T09:15:07.167Z,2.40
2022-12-05T09:19:19.145Z,2.60
2022-12-05T09:23:20.781Z,2.50
2022-12-05T09:27:22.360Z,2.40
2022-12-05T09:31:25.559Z,2.30
2022-12-05T09:35:27.207Z,2.40
2022-12-05T09:39:28.989Z,2.30
2022-12-05T09:43:37.022Z,2.30
2022-12-05T09:47:48.107Z,2.30
2022-12-05T09:51:55.367Z,2.30
2022-12-05T09:56:06.882Z,2.20
2022-12-05T10:00:09.860Z,2.10
2022-12-05T10:04:14.529Z,2.00
2022-12-05T10:08:16.294Z,2.10
2022-12-05T10:12:17.910Z,1.90
2022-12-05T10:16:31.248Z,2.00
2022-12-05T10:20:47.638Z,1.90
2022-12-05T10:24:55.721Z,1.80
2022-12-05T10:29:17.685Z,1.60
2022-12-05T10:33:21.608Z,1.80
2022-12-05T10:37:26.640Z,1.70
2022-12-05T10:41:29.116Z,1.80
2022-12-05T10:45:30.765Z,1.70
2022-12-05T10:49:32.920Z,1.80
2022-12-05T10:53:34.833Z,1.80
2022-12-05T10:57:36.424Z,1.90
2022-12-05T11:01:38.459Z,1.90
2022-12-05T11:05:41.047Z,1.80
2022-12-05T11:09:47.098Z,1.90
2022-12-05T11:13:56.052Z,1.90
2022-12-05T11:18:01.345Z,1.90
2022-12-05T11:22:03.560Z,2.00
2022-12-05T11:26:15.244Z,2.10
2022-12-05T11:30:24.319Z,2.00
2022-12-05T11:34:46.096Z,2.00
2022-12-05T11:38:47.949Z,2.10
2022-12-05T11:42:55.449Z,2.10
2022-12-05T11:46:57.030Z,2.00
2022-12-05T11:51:01.924Z,2.10
2022-12-05T11:55:20.308Z,2.10
2022-12-05T11:59:30.973Z,2.20
2022-12-05T12:03:51.426Z,2.20
2022-12-05T12:08:05.084Z,2.40
2022-12-05T12:12:06.677Z,2.50
2022-12-05T12:16:28.188Z,2.40
2022-12-05T12:20:39.210Z,2.50
2022-12-05T12:24:43.843Z,2.60
2022-12-05T12:28:59.206Z,2.60
2022-12-05T12:33:11.487Z,2.50
2022-12-05T12:37:23.877Z,2.80
2022-12-05T12:41:33.105Z,2.80
2022-12-05T12:45:47.689Z,2.70
2022-12-05T12:49:49.240Z,2.90
2022-12-05T12:53:57.167Z,2.90
2022-12-05T12:58:21.729Z,2.90
2022-12-05T13:02:39.455Z,3.00
2022-12-05T13:06:59.889Z,3.00
2022-12-05T13:11:03.737Z,2.90
2022-12-05T13:15:07.359Z,3.00
2022-12-05T13:19:19.864Z,3.00
2022-12-05T13:23:24.038Z,3.00
2022-12-05T13:27:28.462Z,2.90
2022-12-05T13:31:41.113Z,2.90
2022-12-05T13:36:01.535Z,3.00
2022-12-05T13:40:22.201Z,3.10
2022-12-05T13:44:35.659Z,3.00
2022-12-05T13:48:38.453Z,3.00
2022-12-05T13:52:52.077Z,3.10
2022-12-05T13:56:55.690Z,3.00
2022-12-05T14:01:17.239Z,3.00
2022-12-05T14:05:21.961Z,2.90
2022-12-05T14:09:47.841Z,2.90
2022-12-05T14:13:50.845Z,2.90
2022-12-05T14:18:08.837Z,2.90
2022-12-05T14:22:19.589Z,2.90
2022-12-05T14:26:32.246Z,2.90
2022-12-05T14:30:47.509Z,2.70
2022-12-05T14:34:55.979Z,2.70
2022-12-05T14:38:57.563Z,2.80
2022-12-05T14:43:01.437Z,2.80
2022-12-05T14:47:05.618Z,2.70
2022-12-05T14:51:25.974Z,2.70
2022-12-05T14:55:29.344Z,2.70
2022-12-05T14:59:41.572Z,2.70
2022-12-05T15:03:53.775Z,2.70
2022-12-05T15:07:56.142Z,2.60
2022-12-05T15:11:58.491Z,2.60
2022-12-05T15:16:03.107Z,2.60
2022-12-05T15:20:23.198Z,2.60
2022-12-05T15:24:24.902Z,2.60
2022-12-05T15:28:34.099Z,2.50
2022-12-05T15:32:45.138Z,2.60
2022-12-05T15:36:51.690Z,2.60
2022-12-05T15:40:59.099Z,2.60
2022-12-05T15:45:24.941Z,2.50
2022-12-05T15:49:32.118Z,2.60
2022-12-05T15:53:38.289Z,2.50
2022-12-05T15:57:45.118Z,2.50
2022-12-05T16:01:51.892Z,2.50
2022-12-05T16:06:03.205Z,2.40
2022-12-05T16:10:07.569Z,2.50
2022-12-05T16:14:10.402Z,2.40
2022-12-05T16:18:26.547Z,2.50
2022-12-05T16:22:29.010Z,2.50
2022-12-05T16:26:31.907Z,2.50
2022-12-05T16:30:34.190Z,2.50
2022-12-05T16:38:59.869Z,2.40
2022-12-05T16:43:04.495Z,2.40
2022-12-05T16:47:08.660Z,2.30
2022-12-05T16:51:13.286Z,2.30
2022-12-05T16:55:14.927Z,2.30
2022-12-05T16:59:35.590Z,2.40
2022-12-05T17:03:37.246Z,2.30
2022-12-05T17:07:38.874Z,2.40
2022-12-05T17:11:41.773Z,2.40
2022-12-05T17:15:43.329Z,2.40
2022-12-05T17:19:45.163Z,2.40
2022-12-05T17:23:48.745Z,2.30
2022-12-05T17:27:50.295Z,2.30
2022-12-05T17:31:51.836Z,2.20
2022-12-05T17:35:53.593Z,2.20
2022-12-05T17:39:55.081Z,2.20
2022-12-05T17:43:56.844Z,2.30
2022-12-05T17:47:58.441Z,2.20
2022-12-05T17:56:25.618Z,2.20
2022-12-05T18:00:27.220Z,2.20
2022-12-05T18:04:28.810Z,2.10
2022-12-05T18:08:30.473Z,2.10
2022-12-05T18:12:32.218Z,2.10
2022-12-05T18:16:33.914Z,2.10
2022-12-05T18:20:35.505Z,2.10
2022-12-05T18:24:37.176Z,2.00
2022-12-05T18:28:39.593Z,2.10
2022-12-05T18:32:41.233Z,2.00
2022-12-05T18:36:42.768Z,2.10
2022-12-05T18:40:44.343Z,2.10
2022-12-05T18:44:45.934Z,2.20
2022-12-05T18:48:48.777Z,2.20
2022-12-05T18:52:50.329Z,2.20
2022-12-05T18:56:52.764Z,2.20
2022-12-05T19:00:54.686Z,2.40
2022-12-05T19:04:56.505Z,2.30
2022-12-05T19:08:59.565Z,2.20
2022-12-05T19:13:01.100Z,2.20
2022-12-05T19:17:02.947Z,2.20
2022-12-05T19:21:04.584Z,2.20
2022-12-05T19:25:06.448Z,2.20
2022-12-05T19:29:08.230Z,2.20
2022-12-05T19:33:09.783Z,2.10
2022-12-05T19:37:11.353Z,2.20
2022-12-05T19:41:14.608Z,2.10
2022-12-05T19:45:18.095Z,2.10
2022-12-05T19:49:19.892Z,2.20
2022-12-05T19:53:21.869Z,2.20
2022-12-05T19:57:23.815Z,2.20
2022-12-05T20:01:26.638Z,2.20
2022-12-05T20:05:29.598Z,2.20
2022-12-05T20:09:31.144Z,2.10
2022-12-05T20:13:49.486Z,2.20
2022-12-05T20:17:53.283Z,2.20
2022-12-05T20:21:55.484Z,2.10
2022-12-05T20:26:02.339Z,2.20
2022-12-05T20:30:04.177Z,2.10
2022-12-05T20:34:06.651Z,2.20
2022-12-05T20:38:08.214Z,2.20
2022-12-05T20:42:09.811Z,2.10
2022-12-05T20:46:13.157Z,2.10
2022-12-05T20:50:14.809Z,2.20
2022-12-05T20:54:19.427Z,2.10
2022-12-05T20:58:21.488Z,2.10
2022-12-05T21:02:23.075Z,2.10
2022-12-05T21:06:26.826Z,2.00
2022-12-05T21:10:28.405Z,2.00
2022-12-05T21:14:30.055Z,2.10
2022-12-05T21:18:31.629Z,2.10
2022-12-05T21:22:33.226Z,2.00
2022-12-05T21:26:35.361Z,2.10
2022-12-05T21:30:37.148Z,2.00
2022-12-05T21:34:38.905Z,2.10
2022-12-05T21:38:43.645Z,2.10
2022-12-05T21:42:45.272Z,2.10
2022-12-05T21:46:47.099Z,2.10
2022-12-05T21:50:49.302Z,2.10
2022-12-05T21:54:51.058Z,2.00
2022-12-05T21:58:53.003Z,2.10
2022-12-05T22:02:54.671Z,2.20
2022-12-05T22:06:56.498Z,2.20
2022-12-05T22:11:05.472Z,2.20
2022-12-05T22:15:07.418Z,2.30
2022-12-05T22:19:08.975Z,2.30
2022-12-05T22:23:16.533Z,2.20
2022-12-05T22:27:18.656Z,2.20
2022-12-05T22:31:20.733Z,2.10
2022-12-05T22:35:22.294Z,2.20
2022-12-05T22:39:23.889Z,2.00
2022-12-05T22:43:25.890Z,2.00
2022-12-05T22:47:27.504Z,2.00
2022-12-05T22:51:29.587Z,2.10
2022-12-05T22:55:31.300Z,2.10
2022-12-05T22:59:32.965Z,2.10
2022-12-05T23:03:34.584Z,2.20
2022-12-05T23:07:36.294Z,2.20
2022-12-05T23:11:38.057Z,2.20
2022-12-05T23:15:41.568Z,2.30
2022-12-05T23:19:43.204Z,2.20
2022-12-05T23:23:45.263Z,2.30
2022-12-05T23:27:47.216Z,2.30
2022-12-05T23:31:48.812Z,2.30
2022-12-05T23:35:53.302Z,2.30
2022-12-05T23:39:55.164Z,2.40
2022-12-05T23:43:57.075Z,2.40
2022-12-05T23:48:03.088Z,2.40
2022-12-05T23:52:06.067Z,2.40
2022-12-05T23:56:09.042Z,2.20
